Time;durP1;ratioP1;P1;durP2;ratioP2;P2;SDS_P1;SDS_P2;PMS_P1;PMS_P2;Temp;Humidity;BMP_temperature;BMP_pressure;BME280_temperature;BME280_humidity;BME280_pressure;Samples;Min_cycle;Max_cycle;Signal;HPM_P1;HPM_P2
2021/08/22 00:01:33;;;;;;;;;;;19.40;1.00;;;;;;5029136;28;19917;-67
2021/08/22 00:03:58;;;;;;;;;;;19.40;1.00;;;;;;5028190;28;19909;-67
2021/08/22 00:06:23;;;;;;;;;;;19.40;1.00;;;;;;5028893;28;20443;-67
2021/08/22 00:08:49;;;;;;;;;;;19.40;1.00;;;;;;5041997;28;19920;-66
2021/08/22 00:11:15;;;;;;;;;;;19.40;1.00;;;;;;5028489;28;19913;-67
2021/08/22 00:13:40;;;;;;;;;;;19.40;1.00;;;;;;5028232;28;19915;-67
2021/08/22 00:16:05;;;;;;;;;;;19.40;1.00;;;;;;5028089;28;20392;-67
2021/08/22 00:18:31;;;;;;;;;;;19.50;1.00;;;;;;5029228;28;19909;-67
2021/08/22 00:20:57;;;;;;;;;;;19.50;99.90;;;;;;5027497;28;20293;-67
2021/08/22 00:23:23;;;;;;;;;;;19.50;99.90;;;;;;5028888;28;19959;-67
2021/08/22 00:25:49;;;;;;;;;;;19.60;99.90;;;;;;5028762;28;19916;-67
2021/08/22 00:28:14;;;;;;;;;;;19.60;99.90;;;;;;5028838;28;19920;-67
2021/08/22 00:30:40;;;;;;;;;;;19.70;99.90;;;;;;5027607;28;19909;-67
2021/08/22 00:33:05;;;;;;;;;;;19.70;99.90;;;;;;5028320;28;19955;-66
2021/08/22 00:35:31;;;;;;;;;;;19.70;43.50;;;;;;5029051;28;19945;-66
2021/08/22 00:37:56;;;;;;;;;;;19.70;4.90;;;;;;5029017;28;20265;-66
2021/08/22 00:40:23;;;;;;;;;;;19.70;1.00;;;;;;5009933;28;19917;-66
2021/08/22 00:42:48;;;;;;;;;;;19.70;1.00;;;;;;5008428;28;19936;-66
2021/08/22 00:45:14;;;;;;;;;;;19.80;1.00;;;;;;5011092;28;19913;-65
2021/08/22 00:47:41;;;;;;;;;;;19.80;1.00;;;;;;5012653;28;19991;-66
2021/08/22 00:50:06;;;;;;;;;;;19.80;1.00;;;;;;5018882;28;19992;-66
2021/08/22 00:52:33;;;;;;;;;;;19.90;1.00;;;;;;5032238;28;20008;-66
2021/08/22 00:55:00;;;;;;;;;;;19.90;99.90;;;;;;5032246;28;19916;-66
2021/08/22 00:57:26;;;;;;;;;;;19.90;99.90;;;;;;5031794;28;19921;-66
2021/08/22 00:59:51;;;;;;;;;;;19.90;99.90;;;;;;5032241;28;20511;-66
2021/08/22 01:02:25;;;;;;;;;;;19.90;99.90;;;;;;5032223;28;19910;-65
2021/08/22 01:04:53;;;;;;;;;;;19.90;99.90;;;;;;5032207;28;19917;-65
2021/08/22 01:07:22;;;;;;;;;;;20.00;10.20;;;;;;5032423;28;19921;-65
2021/08/22 01:09:48;;;;;;;;;;;20.00;1.00;;;;;;5031775;28;19909;-67
2021/08/22 01:12:16;;;;;;;;;;;20.00;1.00;;;;;;5031687;28;19913;-65
2021/08/22 01:14:53;;;;;;;;;;;20.00;1.00;;;;;;5026809;28;19993;-66
2021/08/22 01:17:20;;;;;;;;;;;20.00;1.00;;;;;;5017470;28;19929;-66
2021/08/22 01:20:04;;;;;;;;;;;19.90;99.90;;;;;;5013461;28;20409;-66
2021/08/22 01:22:31;;;;;;;;;;;19.80;99.90;;;;;;5014597;28;19916;-66
2021/08/22 01:24:57;;;;;;;;;;;19.80;1.00;;;;;;5012886;28;19909;-65
2021/08/22 01:27:23;;;;;;;;;;;19.80;1.00;;;;;;5014822;28;19940;-68
2021/08/22 01:30:03;;;;;;;;;;;19.80;1.00;;;;;;5034377;28;19921;-66
2021/08/22 01:32:34;;;;;;;;;;;19.70;1.00;;;;;;5038594;28;19913;-66
2021/08/22 01:34:59;;;;;;;;;;;19.70;1.00;;;;;;5038435;28;19932;-66
2021/08/22 01:37:26;;;;;;;;;;;19.60;1.00;;;;;;5038068;28;19913;-66
2021/08/22 01:39:52;;;;;;;;;;;19.60;12.00;;;;;;5037495;28;19956;-66
2021/08/22 01:42:17;;;;;;;;;;;19.60;34.40;;;;;;5035081;28;19909;-65
2021/08/22 01:44:43;;;;;;;;;;;19.70;1.00;;;;;;5037648;28;19910;-65
2021/08/22 01:47:09;;;;;;;;;;;19.70;1.00;;;;;;5033001;28;19928;-66
2021/08/22 01:49:35;;;;;;;;;;;19.70;1.00;;;;;;5029964;28;20394;-66
2021/08/22 01:52:01;;;;;;;;;;;19.70;1.00;;;;;;5011001;28;19910;-65
2021/08/22 01:54:27;;;;;;;;;;;19.80;99.90;;;;;;5011805;28;19913;-67
2021/08/22 01:56:52;;;;;;;;;;;19.80;99.90;;;;;;5010526;28;20003;-66
2021/08/22 01:59:18;;;;;;;;;;;19.90;1.00;;;;;;5021395;28;19913;-65
2021/08/22 02:01:43;;;;;;;;;;;19.90;57.30;;;;;;5032922;28;19909;-66
2021/08/22 02:04:09;;;;;;;;;;;20.00;1.00;;;;;;5032614;28;20440;-65
2021/08/22 02:06:57;;;;;;;;;;;20.10;1.00;;;;;;5032878;28;19961;-65
2021/08/22 02:09:25;;;;;;;;;;;20.10;1.00;;;;;;5029900;28;20363;-66
2021/08/22 02:11:57;;;;;;;;;;;20.20;1.00;;;;;;5032573;28;19909;-66
2021/08/22 02:14:23;;;;;;;;;;;20.20;1.00;;;;;;5032423;28;20751;-65
2021/08/22 02:16:51;;;;;;;;;;;20.30;1.00;;;;;;5031910;28;19920;-65
2021/08/22 02:19:17;;;;;;;;;;;20.30;63.60;;;;;;5031207;28;19959;-65
2021/08/22 02:21:44;;;;;;;;;;;20.30;99.90;;;;;;5031346;28;20362;-65
2021/08/22 02:24:09;;;;;;;;;;;20.20;1.00;;;;;;5030851;28;20247;-65
2021/08/22 02:26:35;;;;;;;;;;;20.30;99.90;;;;;;5030426;28;19963;-65
2021/08/22 02:29:00;;;;;;;;;;;20.20;99.90;;;;;;5030410;28;19917;-65
2021/08/22 02:31:27;;;;;;;;;;;20.20;1.00;;;;;;5029856;28;19913;-65
2021/08/22 02:33:53;;;;;;;;;;;20.20;1.00;;;;;;5029500;28;19909;-65
2021/08/22 02:36:19;;;;;;;;;;;20.20;1.00;;;;;;5030662;28;20416;-65
2021/08/22 02:38:44;;;;;;;;;;;20.20;1.00;;;;;;5030293;28;20055;-66
2021/08/22 02:41:10;;;;;;;;;;;20.10;99.90;;;;;;5029499;28;20009;-65
2021/08/22 02:43:35;;;;;;;;;;;20.20;99.90;;;;;;5029401;28;20226;-67
2021/08/22 02:46:01;;;;;;;;;;;20.20;1.00;;;;;;5029361;28;19932;-66
2021/08/22 02:48:26;;;;;;;;;;;20.20;99.90;;;;;;5030761;28;19939;-66
2021/08/22 02:50:51;;;;;;;;;;;20.10;1.00;;;;;;5027059;28;19937;-65
2021/08/22 02:53:17;;;;;;;;;;;20.10;99.90;;;;;;5025198;28;20298;-66
2021/08/22 02:55:42;;;;;;;;;;;20.10;99.90;;;;;;5030512;28;20064;-66
2021/08/22 02:58:08;;;;;;;;;;;20.10;1.00;;;;;;5029894;28;20128;-66
2021/08/22 03:00:33;;;;;;;;;;;20.00;1.00;;;;;;5029105;28;19917;-66
2021/08/22 03:02:59;;;;;;;;;;;19.90;91.80;;;;;;5029599;28;20430;-66
2021/08/22 03:05:24;;;;;;;;;;;19.90;1.00;;;;;;5030487;28;19913;-66
2021/08/22 03:07:50;;;;;;;;;;;19.80;99.90;;;;;;5029212;28;19970;-66
2021/08/22 03:10:15;;;;;;;;;;;19.80;99.90;;;;;;5029957;28;19913;-66
2021/08/22 03:12:41;;;;;;;;;;;19.80;99.90;;;;;;5028975;28;19917;-67
2021/08/22 03:15:07;;;;;;;;;;;19.80;99.90;;;;;;5029309;28;19913;-65
2021/08/22 03:17:33;;;;;;;;;;;19.80;99.90;;;;;;5030051;28;20016;-65
2021/08/22 03:20:02;;;;;;;;;;;19.70;99.90;;;;;;5029803;28;20004;-66
2021/08/22 03:22:27;;;;;;;;;;;19.70;99.90;;;;;;5029838;28;19941;-66
2021/08/22 03:24:53;;;;;;;;;;;19.70;1.00;;;;;;5030005;28;19956;-66
2021/08/22 03:27:18;;;;;;;;;;;19.60;1.00;;;;;;5029292;28;20034;-66
2021/08/22 03:29:44;;;;;;;;;;;19.40;1.00;;;;;;5028560;28;19924;-66
2021/08/22 03:32:09;;;;;;;;;;;19.30;1.00;;;;;;5028467;28;20670;-66
2021/08/22 03:34:35;;;;;;;;;;;19.20;1.00;;;;;;5029472;28;20076;-66
2021/08/22 03:37:00;;;;;;;;;;;19.10;1.00;;;;;;5029448;28;20000;-66
2021/08/22 03:39:26;;;;;;;;;;;19.00;1.00;;;;;;5029420;28;19909;-66
2021/08/22 03:41:51;;;;;;;;;;;19.00;1.00;;;;;;5028958;28;19931;-66
2021/08/22 03:44:17;;;;;;;;;;;18.90;1.00;;;;;;5028266;28;20000;-66
2021/08/22 03:46:42;;;;;;;;;;;18.90;1.00;;;;;;5029672;28;19945;-66
2021/08/22 03:49:08;;;;;;;;;;;18.80;1.00;;;;;;5029376;28;20676;-66
2021/08/22 03:51:33;;;;;;;;;;;18.80;1.00;;;;;;5021533;28;19914;-66
2021/08/22 03:53:58;;;;;;;;;;;18.70;1.00;;;;;;5026666;28;20382;-66
2021/08/22 03:56:24;;;;;;;;;;;18.70;1.00;;;;;;5028589;28;19971;-66
2021/08/22 03:58:49;;;;;;;;;;;18.60;1.00;;;;;;5029172;28;20324;-66
2021/08/22 04:01:15;;;;;;;;;;;18.50;1.00;;;;;;5028609;28;19920;-66
2021/08/22 04:03:41;;;;;;;;;;;18.60;1.00;;;;;;5027208;28;19913;-66
2021/08/22 04:06:07;;;;;;;;;;;18.60;1.00;;;;;;5028627;28;20390;-66
2021/08/22 04:08:35;;;;;;;;;;;18.60;1.00;;;;;;5028851;28;19967;-66
2021/08/22 04:11:01;;;;;;;;;;;18.60;1.00;;;;;;5028375;28;19909;-66
2021/08/22 04:13:27;;;;;;;;;;;18.70;1.00;;;;;;5027611;28;19943;-66
2021/08/22 04:15:53;;;;;;;;;;;18.70;1.00;;;;;;5027767;28;19952;-66
2021/08/22 04:18:18;;;;;;;;;;;18.70;1.00;;;;;;5028287;28;20008;-66
2021/08/22 04:20:44;;;;;;;;;;;18.70;1.00;;;;;;5032306;28;20007;-66
2021/08/22 04:23:10;;;;;;;;;;;18.70;1.00;;;;;;5032597;28;20087;-66
2021/08/22 04:25:35;;;;;;;;;;;18.80;1.00;;;;;;5032891;28;19909;-66
2021/08/22 04:28:01;;;;;;;;;;;18.80;1.00;;;;;;5031526;28;19913;-66
2021/08/22 04:30:26;;;;;;;;;;;18.80;1.00;;;;;;5031613;28;20357;-66
2021/08/22 04:32:52;;;;;;;;;;;18.70;1.00;;;;;;5032145;28;19917;-66
2021/08/22 04:35:17;;;;;;;;;;;18.70;1.00;;;;;;5032533;28;19920;-66
2021/08/22 04:37:43;;;;;;;;;;;18.70;1.00;;;;;;5032093;28;19918;-65
2021/08/22 04:40:09;;;;;;;;;;;18.70;1.00;;;;;;5031687;28;20290;-65
2021/08/22 04:42:34;;;;;;;;;;;18.80;1.00;;;;;;5030570;28;19956;-65
2021/08/22 04:45:00;;;;;;;;;;;18.80;1.00;;;;;;5030794;28;19955;-65
2021/08/22 04:47:26;;;;;;;;;;;18.80;1.00;;;;;;5032421;28;19961;-66
2021/08/22 04:49:51;;;;;;;;;;;18.90;1.00;;;;;;5028146;28;19985;-66
2021/08/22 04:52:17;;;;;;;;;;;18.90;1.00;;;;;;5011920;28;19920;-66
2021/08/22 04:54:42;;;;;;;;;;;19.00;1.00;;;;;;5011905;28;20029;-66
2021/08/22 04:57:08;;;;;;;;;;;19.00;1.00;;;;;;5012527;28;20571;-66
2021/08/22 04:59:33;;;;;;;;;;;19.00;1.00;;;;;;5023171;28;19917;-66
2021/08/22 05:01:59;;;;;;;;;;;19.10;1.00;;;;;;5031751;28;19913;-66
2021/08/22 05:04:24;;;;;;;;;;;19.10;1.00;;;;;;5032145;28;20007;-66
2021/08/22 05:06:50;;;;;;;;;;;19.10;1.00;;;;;;5032786;28;20343;-66
2021/08/22 05:09:15;;;;;;;;;;;19.10;1.00;;;;;;5032303;28;19909;-66
2021/08/22 05:11:41;;;;;;;;;;;19.10;1.00;;;;;;5032206;28;19929;-66
2021/08/22 05:14:06;;;;;;;;;;;19.20;1.00;;;;;;5026656;28;20000;-66
2021/08/22 05:16:32;;;;;;;;;;;19.20;1.00;;;;;;5022955;28;20008;-66
2021/08/22 05:18:57;;;;;;;;;;;19.20;1.00;;;;;;5012439;28;20366;-66
2021/08/22 05:21:23;;;;;;;;;;;19.30;1.00;;;;;;5012329;28;19961;-66
2021/08/22 05:23:48;;;;;;;;;;;19.40;1.00;;;;;;5011714;28;20357;-66
2021/08/22 05:26:14;;;;;;;;;;;19.50;1.00;;;;;;5011650;28;19913;-66
2021/08/22 05:28:39;;;;;;;;;;;19.50;1.00;;;;;;5020266;28;19959;-67
2021/08/22 05:31:05;;;;;;;;;;;19.50;1.00;;;;;;5030882;28;19963;-66
2021/08/22 05:33:30;;;;;;;;;;;19.50;1.00;;;;;;5031397;28;19995;-66
2021/08/22 05:35:56;;;;;;;;;;;19.60;1.00;;;;;;5031843;28;19910;-66
2021/08/22 05:38:21;;;;;;;;;;;19.60;1.00;;;;;;5032090;28;20322;-66
2021/08/22 05:40:46;;;;;;;;;;;19.60;1.00;;;;;;5031659;28;20004;-67
2021/08/22 05:43:12;;;;;;;;;;;19.60;1.00;;;;;;5030744;28;20366;-66
2021/08/22 05:45:37;;;;;;;;;;;19.60;1.00;;;;;;5031348;28;19913;-66
2021/08/22 05:48:03;;;;;;;;;;;19.60;1.00;;;;;;5031970;28;20347;-66
2021/08/22 05:50:29;;;;;;;;;;;19.70;1.00;;;;;;5031840;28;20378;-66
2021/08/22 05:52:54;;;;;;;;;;;19.70;1.00;;;;;;5030911;28;19913;-66
2021/08/22 05:55:20;;;;;;;;;;;19.80;1.00;;;;;;5031702;28;19909;-66
2021/08/22 05:57:45;;;;;;;;;;;19.80;1.00;;;;;;5031185;28;20448;-66
2021/08/22 06:00:12;;;;;;;;;;;19.90;99.90;;;;;;5030946;28;19916;-66
2021/08/22 06:02:37;;;;;;;;;;;20.00;99.90;;;;;;5030944;28;19909;-66
2021/08/22 06:05:06;;;;;;;;;;;20.20;99.90;;;;;;5031098;28;19915;-66
2021/08/22 06:07:32;;;;;;;;;;;20.30;99.90;;;;;;5031572;28;20374;-65
2021/08/22 06:09:58;;;;;;;;;;;20.50;99.90;;;;;;5031398;28;19913;-67
2021/08/22 06:12:24;;;;;;;;;;;20.50;84.10;;;;;;5030452;28;20125;-67
2021/08/22 06:14:50;;;;;;;;;;;20.50;40.70;;;;;;5030794;28;19996;-67
2021/08/22 06:17:15;;;;;;;;;;;20.40;99.90;;;;;;5031239;28;19921;-66
2021/08/22 06:19:41;;;;;;;;;;;20.30;99.90;;;;;;5031491;28;20353;-66
2021/08/22 06:22:06;;;;;;;;;;;20.30;99.90;;;;;;5029772;28;19913;-66
2021/08/22 06:24:32;;;;;;;;;;;20.30;99.90;;;;;;5031219;28;19920;-66
2021/08/22 06:26:58;;;;;;;;;;;20.20;99.90;;;;;;5030797;28;19913;-65
2021/08/22 06:29:24;;;;;;;;;;;20.20;99.90;;;;;;5030151;28;20658;-66
2021/08/22 06:31:58;;;;;;;;;;;20.10;99.90;;;;;;5030689;28;19920;-65
2021/08/22 06:34:24;;;;;;;;;;;20.10;99.90;;;;;;5030914;28;20266;-66
2021/08/22 06:36:49;;;;;;;;;;;20.10;99.90;;;;;;5030830;28;19910;-66
2021/08/22 06:39:15;;;;;;;;;;;20.20;99.90;;;;;;5029978;28;19909;-66
2021/08/22 06:41:40;;;;;;;;;;;20.40;99.90;;;;;;5030161;28;19913;-66
2021/08/22 06:44:06;;;;;;;;;;;20.70;99.90;;;;;;5029682;28;20293;-66
2021/08/22 06:46:31;;;;;;;;;;;21.30;1.00;;;;;;5030398;28;19920;-66
2021/08/22 06:48:57;;;;;;;;;;;22.20;1.00;;;;;;5030806;28;20004;-66
2021/08/22 06:51:23;;;;;;;;;;;23.50;99.90;;;;;;5022674;28;19913;-66
2021/08/22 06:53:49;;;;;;;;;;;24.30;99.90;;;;;;5029564;28;19944;-66
2021/08/22 06:56:15;;;;;;;;;;;24.90;1.00;;;;;;5028875;28;19959;-66
2021/08/22 06:58:41;;;;;;;;;;;25.80;1.00;;;;;;5029975;28;19913;-66
2021/08/22 07:01:06;;;;;;;;;;;27.00;1.00;;;;;;5024539;28;20012;-66
2021/08/22 07:03:32;;;;;;;;;;;28.20;99.90;;;;;;5027114;28;19943;-67
2021/08/22 07:05:57;;;;;;;;;;;28.70;99.90;;;;;;5030862;28;19928;-66
2021/08/22 07:08:23;;;;;;;;;;;28.50;99.90;;;;;;5031141;28;19992;-66
2021/08/22 07:10:48;;;;;;;;;;;28.60;99.90;;;;;;5030720;28;19959;-65
2021/08/22 07:13:14;;;;;;;;;;;28.10;99.90;;;;;;5029390;28;19939;-66
2021/08/22 07:15:39;;;;;;;;;;;27.20;99.90;;;;;;5019247;28;19917;-67
2021/08/22 07:18:05;;;;;;;;;;;26.30;99.90;;;;;;5010540;28;20383;-67
2021/08/22 07:20:30;;;;;;;;;;;25.90;99.90;;;;;;5010374;28;20564;-67
2021/08/22 07:22:56;;;;;;;;;;;25.70;99.90;;;;;;5010739;28;20003;-66
2021/08/22 07:25:21;;;;;;;;;;;25.50;99.90;;;;;;5010280;28;20205;-66
2021/08/22 07:27:47;;;;;;;;;;;25.10;99.90;;;;;;5011417;28;19924;-66
2021/08/22 07:30:13;;;;;;;;;;;24.80;99.90;;;;;;5029461;28;19909;-66
2021/08/22 07:32:39;;;;;;;;;;;24.40;99.90;;;;;;5029819;28;19909;-66
2021/08/22 07:35:05;;;;;;;;;;;23.90;99.90;;;;;;5030443;28;20000;-66
2021/08/22 07:37:31;;;;;;;;;;;23.70;1.00;;;;;;5024425;28;20367;-66
2021/08/22 07:39:56;;;;;;;;;;;23.50;1.00;;;;;;5008546;28;19952;-66
2021/08/22 07:42:22;;;;;;;;;;;23.40;1.00;;;;;;5009412;28;19925;-66
2021/08/22 07:44:47;;;;;;;;;;;23.10;1.00;;;;;;5009763;28;20354;-66
2021/08/22 07:47:13;;;;;;;;;;;23.00;1.00;;;;;;5010230;28;19917;-66
2021/08/22 07:49:38;;;;;;;;;;;22.90;1.00;;;;;;5011637;28;19913;-66
2021/08/22 07:52:04;;;;;;;;;;;23.00;1.00;;;;;;5029398;28;19913;-67
2021/08/22 07:54:29;;;;;;;;;;;23.10;1.00;;;;;;5029179;28;19916;-66
2021/08/22 07:56:55;;;;;;;;;;;23.30;1.00;;;;;;5030776;28;19945;-67
2021/08/22 07:59:20;;;;;;;;;;;23.50;1.00;;;;;;5020063;28;19913;-66
2021/08/22 08:01:46;;;;;;;;;;;23.70;1.00;;;;;;5009580;28;19989;-66
2021/08/22 08:04:12;;;;;;;;;;;24.00;1.00;;;;;;5009933;28;20373;-66
2021/08/22 08:06:37;;;;;;;;;;;24.40;1.00;;;;;;5009890;28;19917;-67
2021/08/22 08:09:04;;;;;;;;;;;25.20;1.00;;;;;;5010337;28;19910;-66
2021/08/22 08:11:30;;;;;;;;;;;26.00;99.90;;;;;;5010187;28;19960;-66
2021/08/22 08:13:55;;;;;;;;;;;26.50;99.90;;;;;;5014457;28;20015;-66
2021/08/22 08:16:21;;;;;;;;;;;26.90;99.90;;;;;;5023961;28;20013;-66
2021/08/22 08:18:46;;;;;;;;;;;27.00;99.90;;;;;;5010207;28;19910;-66
2021/08/22 08:21:12;;;;;;;;;;;26.80;99.90;;;;;;5010801;28;20358;-66
2021/08/22 08:23:38;;;;;;;;;;;26.80;99.90;;;;;;5009843;28;19969;-68
2021/08/22 08:26:03;;;;;;;;;;;26.80;99.90;;;;;;5009989;28;19979;-67
2021/08/22 08:28:29;;;;;;;;;;;26.90;99.90;;;;;;5016774;28;20398;-67
2021/08/22 08:30:54;;;;;;;;;;;26.70;99.90;;;;;;5028956;28;19913;-66
2021/08/22 08:33:20;;;;;;;;;;;26.20;99.90;;;;;;5027570;28;19910;-67
2021/08/22 08:35:45;;;;;;;;;;;26.10;99.90;;;;;;5029143;28;20304;-67
2021/08/22 08:38:11;;;;;;;;;;;26.00;99.90;;;;;;5028439;28;19922;-66
2021/08/22 08:40:38;;;;;;;;;;;26.20;99.90;;;;;;5029573;28;19983;-66
2021/08/22 08:43:04;;;;;;;;;;;26.60;99.90;;;;;;5028062;28;19923;-66
2021/08/22 08:45:49;;;;;;;;;;;27.10;99.90;;;;;;5028715;28;19909;-66
2021/08/22 08:48:19;;;;;;;;;;;27.30;99.90;;;;;;5029154;28;19987;-66
2021/08/22 08:50:48;;;;;;;;;;;27.70;99.90;;;;;;5023812;28;19913;-66
2021/08/22 08:53:27;;;;;;;;;;;28.80;99.90;;;;;;5020670;28;19917;-67
2021/08/22 08:56:12;;;;;;;;;;;30.50;99.90;;;;;;5017327;28;20008;-66
2021/08/22 08:58:38;;;;;;;;;;;31.60;99.90;;;;;;5020554;28;20052;-66
2021/08/22 09:01:03;;;;;;;;;;;31.60;99.90;;;;;;5016994;28;20008;-66
2021/08/22 09:03:29;;;;;;;;;;;31.20;99.90;;;;;;5010858;28;19949;-66
2021/08/22 09:05:54;;;;;;;;;;;30.50;99.90;;;;;;5010616;28;20600;-67
2021/08/22 09:08:43;;;;;;;;;;;29.70;99.90;;;;;;5012880;28;19918;-66
2021/08/22 09:11:27;;;;;;;;;;;29.10;99.90;;;;;;5002568;28;19988;-66
2021/08/22 09:14:11;;;;;;;;;;;28.50;99.90;;;;;;5012332;28;19909;-66
2021/08/22 09:16:48;;;;;;;;;;;28.10;99.90;;;;;;5014448;28;20298;-66
2021/08/22 09:19:34;;;;;;;;;;;27.90;99.90;;;;;;5013559;28;19913;-66
2021/08/22 09:22:18;;;;;;;;;;;27.30;99.90;;;;;;5020266;28;19921;-65
2021/08/22 09:25:02;;;;;;;;;;;26.80;99.90;;;;;;5016853;28;20335;-66
2021/08/22 09:27:45;;;;;;;;;;;26.10;99.90;;;;;;5021025;28;19921;-66
2021/08/22 09:30:29;;;;;;;;;;;25.50;99.90;;;;;;5019253;28;19920;-66
2021/08/22 09:33:13;;;;;;;;;;;25.10;99.90;;;;;;5020875;28;19962;-66
2021/08/22 09:36:07;;;;;;;;;;;24.80;99.90;;;;;;5021420;28;19972;-66
2021/08/22 09:38:33;;;;;;;;;;;24.60;99.90;;;;;;5020991;28;19910;-66
2021/08/22 09:40:58;;;;;;;;;;;24.50;99.90;;;;;;5021163;28;19936;-66
2021/08/22 09:43:43;;;;;;;;;;;24.50;99.90;;;;;;5021723;28;19982;-66
2021/08/22 09:46:27;;;;;;;;;;;24.50;99.90;;;;;;5021610;28;20458;-66
2021/08/22 09:49:11;;;;;;;;;;;24.60;99.90;;;;;;5025212;28;19913;-66
2021/08/22 09:51:51;;;;;;;;;;;24.60;99.90;;;;;;5018020;28;19920;-67
2021/08/22 09:54:32;;;;;;;;;;;24.80;99.90;;;;;;5020109;28;19909;-66
2021/08/22 09:57:16;;;;;;;;;;;25.10;99.90;;;;;;5021219;28;19956;-66
2021/08/22 09:59:54;;;;;;;;;;;25.50;99.90;;;;;;5026569;28;19913;-66
2021/08/22 10:02:28;;;;;;;;;;;25.60;99.90;;;;;;5017701;28;19913;-66
2021/08/22 10:05:06;;;;;;;;;;;25.70;99.90;;;;;;5020076;28;20026;-67
2021/08/22 10:07:46;;;;;;;;;;;25.80;99.90;;;;;;5022181;28;19913;-67
2021/08/22 10:10:19;;;;;;;;;;;25.90;99.90;;;;;;5019510;28;19916;-66
2021/08/22 10:12:45;;;;;;;;;;;26.00;99.90;;;;;;5027771;28;19909;-67
2021/08/22 10:15:11;;;;;;;;;;;26.20;99.90;;;;;;5031428;28;19916;-67
2021/08/22 10:17:36;;;;;;;;;;;26.40;99.90;;;;;;5030425;28;19913;-67
2021/08/22 10:20:02;;;;;;;;;;;26.20;99.90;;;;;;5031328;28;20007;-66
2021/08/22 10:22:30;;;;;;;;;;;26.00;99.90;;;;;;5030664;28;19913;-66
2021/08/22 10:24:58;;;;;;;;;;;26.20;99.90;;;;;;5031495;28;19913;-67
2021/08/22 10:27:30;;;;;;;;;;;26.50;99.90;;;;;;5031236;28;19928;-67
2021/08/22 10:29:57;;;;;;;;;;;26.70;99.90;;;;;;5029779;28;19926;-66
2021/08/22 10:32:23;;;;;;;;;;;26.90;99.90;;;;;;5028522;28;20251;-67
2021/08/22 10:35:07;;;;;;;;;;;26.90;99.90;;;;;;5027533;28;19980;-67
2021/08/22 10:37:33;;;;;;;;;;;27.20;99.90;;;;;;5028002;28;19909;-67
2021/08/22 10:39:59;;;;;;;;;;;27.90;99.90;;;;;;5027991;28;20038;-67
2021/08/22 10:42:27;;;;;;;;;;;28.30;99.90;;;;;;5026560;28;19992;-67
2021/08/22 10:44:53;;;;;;;;;;;28.40;99.90;;;;;;5026609;28;20709;-67
2021/08/22 10:47:21;;;;;;;;;;;28.40;99.90;;;;;;5027275;28;19917;-66
2021/08/22 10:49:49;;;;;;;;;;;28.10;99.90;;;;;;5024054;28;19944;-66
2021/08/22 10:52:41;;;;;;;;;;;27.90;99.90;;;;;;5006401;28;19924;-65
2021/08/22 10:55:13;;;;;;;;;;;27.50;99.90;;;;;;5002570;28;19991;-66
2021/08/22 11:00:17;;;;;;;;;;;27.10;99.90;;;;;;5012586;28;20378;-66
2021/08/22 11:02:43;;;;;;;;;;;26.90;99.90;;;;;;5005625;28;20439;-66
2021/08/22 11:05:15;;;;;;;;;;;26.70;99.90;;;;;;5007211;28;19920;-66
2021/08/22 11:07:42;;;;;;;;;;;26.50;99.90;;;;;;5030641;22;20396;-63
2021/08/22 11:10:14;;;;;;;;;;;26.30;99.90;;;;;;5007147;28;20435;-64
2021/08/22 11:12:40;;;;;;;;;;;26.10;99.90;;;;;;5005322;28;19913;-63
2021/08/22 11:15:06;;;;;;;;;;;25.90;99.90;;;;;;5005621;28;20370;-64
2021/08/22 11:17:32;;;;;;;;;;;25.70;99.90;;;;;;5002195;28;20453;-64
2021/08/22 11:20:08;;;;;;;;;;;25.60;99.90;;;;;;5007324;28;20003;-64
2021/08/22 11:22:34;;;;;;;;;;;25.50;99.90;;;;;;5005742;28;19976;-64
2021/08/22 11:24:59;;;;;;;;;;;25.40;99.90;;;;;;5004669;28;19948;-65
2021/08/22 11:27:26;;;;;;;;;;;25.20;99.90;;;;;;5005739;28;19962;-64
2021/08/22 11:29:52;;;;;;;;;;;25.00;99.90;;;;;;4997683;28;19920;-64
2021/08/22 11:32:18;;;;;;;;;;;24.70;99.90;;;;;;4994873;28;20258;-64
2021/08/22 11:34:43;;;;;;;;;;;24.40;99.90;;;;;;5003280;28;19921;-64
2021/08/22 11:37:15;;;;;;;;;;;24.20;99.90;;;;;;5006385;28;19909;-65
2021/08/22 11:39:41;;;;;;;;;;;24.00;99.90;;;;;;5005484;28;20008;-64
2021/08/22 11:42:08;;;;;;;;;;;23.80;99.90;;;;;;5005462;28;20415;-64
2021/08/22 11:44:33;;;;;;;;;;;23.60;99.90;;;;;;5005640;28;19924;-63
2021/08/22 11:46:59;;;;;;;;;;;23.30;99.90;;;;;;4990347;28;19910;-63
2021/08/22 11:49:24;;;;;;;;;;;23.20;1.00;;;;;;4991781;28;19913;-63
2021/08/22 11:51:50;;;;;;;;;;;23.10;1.00;;;;;;5005944;28;19953;-64
2021/08/22 11:54:17;;;;;;;;;;;23.00;99.90;;;;;;5006801;28;19913;-64
2021/08/22 11:56:42;;;;;;;;;;;23.10;85.20;;;;;;5008339;28;19909;-64
2021/08/22 11:59:26;;;;;;;;;;;23.10;89.30;;;;;;5008945;28;19921;-64
2021/08/22 12:02:11;;;;;;;;;;;23.30;99.90;;;;;;5008800;28;19909;-65
2021/08/22 12:04:36;;;;;;;;;;;23.60;99.90;;;;;;5009041;28;19913;-64
2021/08/22 12:07:02;;;;;;;;;;;23.70;1.00;;;;;;5009606;28;20301;-64
2021/08/22 12:09:27;;;;;;;;;;;23.90;1.00;;;;;;5008869;28;19913;-64
2021/08/22 12:11:53;;;;;;;;;;;23.90;1.00;;;;;;5008285;28;19913;-64
2021/08/22 12:14:19;;;;;;;;;;;23.90;1.00;;;;;;5007164;28;19913;-64
2021/08/22 12:16:55;;;;;;;;;;;23.90;1.00;;;;;;5009001;28;19920;-64
2021/08/22 12:19:27;;;;;;;;;;;24.00;1.00;;;;;;5009147;28;19914;-65
2021/08/22 12:21:53;;;;;;;;;;;24.00;1.00;;;;;;5007444;28;19925;-64
2021/08/22 12:24:22;;;;;;;;;;;23.90;1.00;;;;;;4995841;28;20020;-64
2021/08/22 12:26:51;;;;;;;;;;;23.90;1.00;;;;;;5000050;28;19956;-65
2021/08/22 12:29:17;;;;;;;;;;;23.90;1.00;;;;;;5008295;28;20000;-64
2021/08/22 12:31:42;;;;;;;;;;;23.90;1.00;;;;;;5008479;28;20023;-65
2021/08/22 12:34:12;;;;;;;;;;;23.90;1.00;;;;;;5008528;28;19910;-65
2021/08/22 12:36:39;;;;;;;;;;;24.00;1.00;;;;;;5009161;28;19933;-65
2021/08/22 12:39:05;;;;;;;;;;;24.30;99.90;;;;;;5009437;28;19918;-65
2021/08/22 12:41:45;;;;;;;;;;;24.60;99.90;;;;;;5011508;28;19914;-65
2021/08/22 12:44:12;;;;;;;;;;;24.90;99.90;;;;;;5006040;28;20286;-64
2021/08/22 12:46:38;;;;;;;;;;;25.30;99.90;;;;;;5010959;28;20313;-65
2021/08/22 12:49:04;;;;;;;;;;;25.70;99.90;;;;;;5013081;28;20043;-65
2021/08/22 12:51:30;;;;;;;;;;;26.20;99.90;;;;;;5004352;28;19910;-64
2021/08/22 12:53:57;;;;;;;;;;;26.50;99.90;;;;;;5012400;28;19913;-64
2021/08/22 12:56:23;;;;;;;;;;;26.80;99.90;;;;;;5011754;28;19910;-65
2021/08/22 12:58:49;;;;;;;;;;;27.10;99.90;;;;;;5012556;28;20070;-65
2021/08/22 13:01:15;;;;;;;;;;;27.40;99.90;;;;;;5001018;28;20416;-65
2021/08/22 13:03:41;;;;;;;;;;;27.60;99.90;;;;;;5001217;28;19937;-64
2021/08/22 13:06:06;;;;;;;;;;;27.70;99.90;;;;;;4991185;28;19917;-64
2021/08/22 13:08:32;;;;;;;;;;;27.80;99.90;;;;;;4995604;28;20025;-64
2021/08/22 13:10:57;;;;;;;;;;;27.70;99.90;;;;;;5012466;28;19917;-65
2021/08/22 13:13:23;;;;;;;;;;;27.70;99.90;;;;;;5010939;28;19976;-65
2021/08/22 13:15:48;;;;;;;;;;;27.60;99.90;;;;;;5011258;28;19914;-65
2021/08/22 13:18:14;;;;;;;;;;;27.50;99.90;;;;;;5012831;28;19917;-65
2021/08/22 13:20:40;;;;;;;;;;;27.50;99.90;;;;;;5012411;28;19909;-65
2021/08/22 13:23:05;;;;;;;;;;;27.50;99.90;;;;;;5011581;28;19910;-64
2021/08/22 13:25:31;;;;;;;;;;;27.30;99.90;;;;;;5011668;28;19914;-63
2021/08/22 13:27:57;;;;;;;;;;;27.00;99.90;;;;;;5014012;28;20001;-64
2021/08/22 13:30:23;;;;;;;;;;;26.90;99.90;;;;;;5031094;28;19914;-64
2021/08/22 13:32:48;;;;;;;;;;;26.70;99.90;;;;;;5031475;28;19913;-64
2021/08/22 13:35:14;;;;;;;;;;;26.40;99.90;;;;;;5031390;28;20358;-63
2021/08/22 13:37:39;;;;;;;;;;;26.20;99.90;;;;;;5024807;28;19914;-63
2021/08/22 13:40:05;;;;;;;;;;;26.10;99.90;;;;;;5011821;28;19920;-64
2021/08/22 13:42:30;;;;;;;;;;;25.80;99.90;;;;;;5010783;28;19914;-64
2021/08/22 13:44:56;;;;;;;;;;;25.30;99.90;;;;;;5011403;28;19988;-64
2021/08/22 13:47:21;;;;;;;;;;;25.10;99.90;;;;;;5011986;28;20396;-64
2021/08/22 13:49:47;;;;;;;;;;;24.80;99.90;;;;;;5008650;28;19921;-64
2021/08/22 13:52:12;;;;;;;;;;;24.70;99.90;;;;;;4989919;28;20016;-63
2021/08/22 13:54:39;;;;;;;;;;;24.40;99.90;;;;;;4990071;28;19910;-63
2021/08/22 13:57:04;;;;;;;;;;;24.40;99.90;;;;;;4991264;28;20315;-63
2021/08/22 13:59:30;;;;;;;;;;;24.30;99.90;;;;;;5002310;28;19913;-63
2021/08/22 14:01:57;;;;;;;;;;;24.20;99.90;;;;;;5011570;28;20240;-64
2021/08/22 14:04:22;;;;;;;;;;;24.10;99.90;;;;;;5011378;28;20051;-64
2021/08/22 14:06:48;;;;;;;;;;;23.90;99.90;;;;;;5011477;28;20074;-64
2021/08/22 14:09:13;;;;;;;;;;;23.50;99.90;;;;;;5011559;28;20435;-63
2021/08/22 14:11:39;;;;;;;;;;;23.30;99.90;;;;;;5010821;28;19909;-64
2021/08/22 14:14:04;;;;;;;;;;;23.10;99.90;;;;;;5010425;28;20023;-64
2021/08/22 14:16:30;;;;;;;;;;;23.10;99.90;;;;;;5001927;28;20270;-64
2021/08/22 14:18:55;;;;;;;;;;;23.00;99.90;;;;;;4991678;28;20001;-64
2021/08/22 14:21:21;;;;;;;;;;;23.00;99.90;;;;;;4991553;28;20311;-64
2021/08/22 14:23:46;;;;;;;;;;;22.90;99.90;;;;;;4989742;28;19921;-63
2021/08/22 14:26:12;;;;;;;;;;;22.90;99.90;;;;;;4990154;28;19981;-63